sensor_id;sensor_type;location;lat;lon;timestamp;P1;durP1;ratioP1;P2;durP2;ratioP2
57071;SDS011;42956;51.366;11.298;2023-12-07T00:01:28;19.33;;;12.80;;
57071;SDS011;42956;51.366;11.298;2023-12-07T00:03:58;20.67;;;12.27;;
57071;SDS011;42956;51.366;11.298;2023-12-07T00:06:29;19.38;;;13.45;;
57071;SDS011;42956;51.366;11.298;2023-12-07T00:09:01;19.35;;;12.82;;
57071;SDS011;42956;51.366;11.298;2023-12-07T00:11:31;20.10;;;12.77;;
57071;SDS011;42956;51.366;11.298;2023-12-07T00:14:01;22.25;;;12.48;;
57071;SDS011;42956;51.366;11.298;2023-12-07T00:16:31;20.83;;;13.70;;
57071;SDS011;42956;51.366;11.298;2023-12-07T00:19:01;19.35;;;13.18;;
57071;SDS011;42956;51.366;11.298;2023-12-07T00:21:31;18.60;;;12.63;;
57071;SDS011;42956;51.366;11.298;2023-12-07T00:24:03;20.27;;;13.77;;
57071;SDS011;42956;51.366;11.298;2023-12-07T00:26:34;21.40;;;13.20;;
57071;SDS011;42956;51.366;11.298;2023-12-07T00:29:04;20.55;;;12.98;;
57071;SDS011;42956;51.366;11.298;2023-12-07T00:31:34;24.50;;;13.05;;
57071;SDS011;42956;51.366;11.298;2023-12-07T00:34:04;22.83;;;13.88;;
57071;SDS011;42956;51.366;11.298;2023-12-07T00:36:37;21.70;;;14.35;;
57071;SDS011;42956;51.366;11.298;2023-12-07T00:39:10;20.80;;;13.82;;
57071;SDS011;42956;51.366;11.298;2023-12-07T00:44:10;20.73;;;13.63;;
57071;SDS011;42956;51.366;11.298;2023-12-07T00:46:40;18.58;;;13.45;;
57071;SDS011;42956;51.366;11.298;2023-12-07T00:49:10;20.20;;;13.23;;
57071;SDS011;42956;51.366;11.298;2023-12-07T00:51:40;19.05;;;13.35;;
57071;SDS011;42956;51.366;11.298;2023-12-07T00:54:12;20.45;;;13.27;;
57071;SDS011;42956;51.366;11.298;2023-12-07T00:56:43;21.60;;;14.18;;
57071;SDS011;42956;51.366;11.298;2023-12-07T00:59:13;20.83;;;14.00;;
57071;SDS011;42956;51.366;11.298;2023-12-07T01:01:42;25.17;;;13.52;;
57071;SDS011;42956;51.366;11.298;2023-12-07T01:04:12;20.13;;;13.85;;
57071;SDS011;42956;51.366;11.298;2023-12-07T01:06:43;27.63;;;14.05;;
57071;SDS011;42956;51.366;11.298;2023-12-07T01:09:15;22.15;;;13.60;;
57071;SDS011;42956;51.366;11.298;2023-12-07T01:11:45;22.27;;;13.48;;
57071;SDS011;42956;51.366;11.298;2023-12-07T01:14:15;25.92;;;14.32;;
57071;SDS011;42956;51.366;11.298;2023-12-07T01:16:45;24.63;;;14.85;;
57071;SDS011;42956;51.366;11.298;2023-12-07T01:19:15;34.67;;;17.38;;
57071;SDS011;42956;51.366;11.298;2023-12-07T01:21:45;25.88;;;15.50;;
57071;SDS011;42956;51.366;11.298;2023-12-07T01:24:20;27.70;;;14.68;;
57071;SDS011;42956;51.366;11.298;2023-12-07T01:26:49;29.25;;;16.65;;
57071;SDS011;42956;51.366;11.298;2023-12-07T01:29:19;29.80;;;15.70;;
57071;SDS011;42956;51.366;11.298;2023-12-07T01:31:49;29.30;;;15.80;;
57071;SDS011;42956;51.366;11.298;2023-12-07T01:34:19;26.15;;;15.07;;
57071;SDS011;42956;51.366;11.298;2023-12-07T01:36:49;24.58;;;14.45;;
57071;SDS011;42956;51.366;11.298;2023-12-07T01:39:22;24.13;;;14.23;;
57071;SDS011;42956;51.366;11.298;2023-12-07T01:41:52;19.60;;;13.70;;
57071;SDS011;42956;51.366;11.298;2023-12-07T01:44:22;25.60;;;15.07;;
57071;SDS011;42956;51.366;11.298;2023-12-07T01:46:53;24.90;;;14.68;;
57071;SDS011;42956;51.366;11.298;2023-12-07T01:49:23;26.20;;;14.63;;
57071;SDS011;42956;51.366;11.298;2023-12-07T01:51:53;24.88;;;14.57;;
57071;SDS011;42956;51.366;11.298;2023-12-07T01:54:29;23.90;;;14.55;;
57071;SDS011;42956;51.366;11.298;2023-12-07T01:56:59;28.42;;;14.95;;
57071;SDS011;42956;51.366;11.298;2023-12-07T01:59:29;27.60;;;15.73;;
57071;SDS011;42956;51.366;11.298;2023-12-07T02:01:59;27.38;;;15.05;;
57071;SDS011;42956;51.366;11.298;2023-12-07T02:04:29;30.45;;;16.42;;
57071;SDS011;42956;51.366;11.298;2023-12-07T02:07:00;29.60;;;17.10;;
57071;SDS011;42956;51.366;11.298;2023-12-07T02:09:33;29.85;;;16.52;;
57071;SDS011;42956;51.366;11.298;2023-12-07T02:12:03;25.88;;;16.15;;
57071;SDS011;42956;51.366;11.298;2023-12-07T02:14:33;25.15;;;15.55;;
57071;SDS011;42956;51.366;11.298;2023-12-07T02:17:07;23.08;;;14.80;;
57071;SDS011;42956;51.366;11.298;2023-12-07T02:19:44;26.13;;;14.73;;
57071;SDS011;42956;51.366;11.298;2023-12-07T02:22:17;22.42;;;13.80;;
57071;SDS011;42956;51.366;11.298;2023-12-07T02:24:54;20.48;;;14.35;;
57071;SDS011;42956;51.366;11.298;2023-12-07T02:27:41;22.05;;;13.25;;
57071;SDS011;42956;51.366;11.298;2023-12-07T02:30:13;21.65;;;12.95;;
57071;SDS011;42956;51.366;11.298;2023-12-07T02:32:43;20.52;;;13.55;;
57071;SDS011;42956;51.366;11.298;2023-12-07T02:35:13;23.15;;;13.10;;
57071;SDS011;42956;51.366;11.298;2023-12-07T02:37:44;20.83;;;13.13;;
57071;SDS011;42956;51.366;11.298;2023-12-07T02:40:16;25.65;;;14.20;;
57071;SDS011;42956;51.366;11.298;2023-12-07T02:42:50;26.83;;;13.45;;
57071;SDS011;42956;51.366;11.298;2023-12-07T02:45:21;21.42;;;13.20;;
57071;SDS011;42956;51.366;11.298;2023-12-07T02:47:53;20.70;;;13.48;;
57071;SDS011;42956;51.366;11.298;2023-12-07T02:50:23;21.60;;;13.48;;
57071;SDS011;42956;51.366;11.298;2023-12-07T02:52:53;25.80;;;13.80;;
57071;SDS011;42956;51.366;11.298;2023-12-07T02:55:23;30.35;;;16.42;;
57071;SDS011;42956;51.366;11.298;2023-12-07T02:57:56;25.45;;;14.90;;
57071;SDS011;42956;51.366;11.298;2023-12-07T03:00:26;26.00;;;13.57;;
57071;SDS011;42956;51.366;11.298;2023-12-07T03:02:56;25.45;;;14.10;;
57071;SDS011;42956;51.366;11.298;2023-12-07T03:05:26;18.02;;;12.60;;
57071;SDS011;42956;51.366;11.298;2023-12-07T03:07:56;20.88;;;12.23;;
57071;SDS011;42956;51.366;11.298;2023-12-07T03:10:25;22.73;;;13.40;;
57071;SDS011;42956;51.366;11.298;2023-12-07T03:12:58;19.42;;;12.65;;
57071;SDS011;42956;51.366;11.298;2023-12-07T03:15:28;20.58;;;13.18;;
57071;SDS011;42956;51.366;11.298;2023-12-07T03:17:58;21.88;;;13.00;;
57071;SDS011;42956;51.366;11.298;2023-12-07T03:20:28;25.42;;;14.10;;
57071;SDS011;42956;51.366;11.298;2023-12-07T03:22:58;24.08;;;14.55;;
57071;SDS011;42956;51.366;11.298;2023-12-07T03:25:28;30.15;;;15.30;;
57071;SDS011;42956;51.366;11.298;2023-12-07T03:28:01;28.50;;;14.52;;
57071;SDS011;42956;51.366;11.298;2023-12-07T03:30:31;36.67;;;16.52;;
57071;SDS011;42956;51.366;11.298;2023-12-07T03:33:01;35.05;;;18.73;;
57071;SDS011;42956;51.366;11.298;2023-12-07T03:35:31;31.92;;;15.90;;
57071;SDS011;42956;51.366;11.298;2023-12-07T03:38:01;30.80;;;15.35;;
57071;SDS011;42956;51.366;11.298;2023-12-07T03:40:31;29.88;;;15.48;;
57071;SDS011;42956;51.366;11.298;2023-12-07T03:43:03;29.52;;;14.77;;
57071;SDS011;42956;51.366;11.298;2023-12-07T03:48:04;21.52;;;13.20;;
57071;SDS011;42956;51.366;11.298;2023-12-07T03:50:34;21.75;;;12.88;;
57071;SDS011;42956;51.366;11.298;2023-12-07T03:53:03;18.38;;;13.18;;
57071;SDS011;42956;51.366;11.298;2023-12-07T03:55:33;21.92;;;13.55;;
57071;SDS011;42956;51.366;11.298;2023-12-07T03:58:06;19.55;;;13.07;;
57071;SDS011;42956;51.366;11.298;2023-12-07T04:00:36;20.70;;;13.18;;
57071;SDS011;42956;51.366;11.298;2023-12-07T04:03:06;19.13;;;11.73;;
57071;SDS011;42956;51.366;11.298;2023-12-07T04:05:36;20.70;;;12.93;;
57071;SDS011;42956;51.366;11.298;2023-12-07T04:08:06;20.45;;;13.30;;
57071;SDS011;42956;51.366;11.298;2023-12-07T04:10:36;18.95;;;12.80;;
57071;SDS011;42956;51.366;11.298;2023-12-07T04:13:13;21.45;;;12.82;;
57071;SDS011;42956;51.366;11.298;2023-12-07T04:15:43;18.98;;;12.13;;
57071;SDS011;42956;51.366;11.298;2023-12-07T04:18:12;19.95;;;12.25;;
57071;SDS011;42956;51.366;11.298;2023-12-07T04:20:43;22.63;;;12.45;;
57071;SDS011;42956;51.366;11.298;2023-12-07T04:23:12;20.00;;;13.00;;
57071;SDS011;42956;51.366;11.298;2023-12-07T04:25:42;17.88;;;11.43;;
57071;SDS011;42956;51.366;11.298;2023-12-07T04:28:15;18.95;;;12.20;;
57071;SDS011;42956;51.366;11.298;2023-12-07T04:30:45;19.38;;;11.90;;
57071;SDS011;42956;51.366;11.298;2023-12-07T04:33:15;18.83;;;11.75;;
57071;SDS011;42956;51.366;11.298;2023-12-07T04:35:45;18.73;;;12.50;;
57071;SDS011;42956;51.366;11.298;2023-12-07T04:38:15;19.00;;;12.15;;
57071;SDS011;42956;51.366;11.298;2023-12-07T04:40:45;19.08;;;11.85;;
57071;SDS011;42956;51.366;11.298;2023-12-07T04:43:17;18.52;;;12.13;;
57071;SDS011;42956;51.366;11.298;2023-12-07T04:45:47;18.55;;;11.60;;
57071;SDS011;42956;51.366;11.298;2023-12-07T04:48:17;20.35;;;12.20;;
57071;SDS011;42956;51.366;11.298;2023-12-07T04:50:47;29.55;;;14.73;;
57071;SDS011;42956;51.366;11.298;2023-12-07T04:53:18;25.23;;;14.48;;
57071;SDS011;42956;51.366;11.298;2023-12-07T04:55:47;23.70;;;14.20;;
57071;SDS011;42956;51.366;11.298;2023-12-07T04:58:20;23.33;;;14.32;;
57071;SDS011;42956;51.366;11.298;2023-12-07T05:00:51;28.20;;;15.30;;
57071;SDS011;42956;51.366;11.298;2023-12-07T05:03:20;32.67;;;15.07;;
57071;SDS011;42956;51.366;11.298;2023-12-07T05:05:50;28.52;;;14.68;;
57071;SDS011;42956;51.366;11.298;2023-12-07T05:08:20;31.27;;;14.75;;
57071;SDS011;42956;51.366;11.298;2023-12-07T05:10:50;20.30;;;12.55;;
57071;SDS011;42956;51.366;11.298;2023-12-07T05:13:24;18.90;;;13.20;;
57071;SDS011;42956;51.366;11.298;2023-12-07T05:15:54;16.15;;;10.50;;
57071;SDS011;42956;51.366;11.298;2023-12-07T05:18:24;21.52;;;12.52;;
57071;SDS011;42956;51.366;11.298;2023-12-07T05:20:54;23.92;;;13.73;;
57071;SDS011;42956;51.366;11.298;2023-12-07T05:23:24;24.42;;;13.93;;
57071;SDS011;42956;51.366;11.298;2023-12-07T05:25:54;23.77;;;13.70;;
57071;SDS011;42956;51.366;11.298;2023-12-07T05:28:26;21.23;;;13.27;;
57071;SDS011;42956;51.366;11.298;2023-12-07T05:30:57;31.33;;;14.32;;
57071;SDS011;42956;51.366;11.298;2023-12-07T05:33:27;24.95;;;14.25;;
57071;SDS011;42956;51.366;11.298;2023-12-07T05:35:56;33.28;;;15.65;;
57071;SDS011;42956;51.366;11.298;2023-12-07T05:38:27;22.17;;;13.40;;
57071;SDS011;42956;51.366;11.298;2023-12-07T05:40:57;20.60;;;13.13;;
57071;SDS011;42956;51.366;11.298;2023-12-07T05:43:30;21.55;;;12.77;;
57071;SDS011;42956;51.366;11.298;2023-12-07T05:46:00;28.40;;;15.02;;
57071;SDS011;42956;51.366;11.298;2023-12-07T05:48:30;29.38;;;16.17;;
57071;SDS011;42956;51.366;11.298;2023-12-07T05:51:01;38.22;;;18.42;;
57071;SDS011;42956;51.366;11.298;2023-12-07T05:53:31;37.10;;;17.60;;
57071;SDS011;42956;51.366;11.298;2023-12-07T05:56:01;32.40;;;17.40;;
57071;SDS011;42956;51.366;11.298;2023-12-07T05:58:34;40.05;;;18.23;;
57071;SDS011;42956;51.366;11.298;2023-12-07T06:01:04;39.63;;;17.83;;
57071;SDS011;42956;51.366;11.298;2023-12-07T06:03:35;38.35;;;19.40;;
57071;SDS011;42956;51.366;11.298;2023-12-07T06:06:05;32.25;;;16.48;;
57071;SDS011;42956;51.366;11.298;2023-12-07T06:08:35;24.88;;;15.32;;
57071;SDS011;42956;51.366;11.298;2023-12-07T06:11:05;23.30;;;14.43;;
57071;SDS011;42956;51.366;11.298;2023-12-07T06:13:37;26.92;;;14.43;;
57071;SDS011;42956;51.366;11.298;2023-12-07T06:16:10;21.98;;;14.45;;
57071;SDS011;42956;51.366;11.298;2023-12-07T06:18:40;27.33;;;14.88;;
57071;SDS011;42956;51.366;11.298;2023-12-07T06:21:11;20.17;;;13.32;;
57071;SDS011;42956;51.366;11.298;2023-12-07T06:23:41;21.92;;;12.95;;
57071;SDS011;42956;51.366;11.298;2023-12-07T06:26:13;25.40;;;14.18;;
57071;SDS011;42956;51.366;11.298;2023-12-07T06:28:46;23.10;;;14.90;;
57071;SDS011;42956;51.366;11.298;2023-12-07T06:31:16;31.13;;;14.60;;
57071;SDS011;42956;51.366;11.298;2023-12-07T06:33:48;24.33;;;14.52;;
57071;SDS011;42956;51.366;11.298;2023-12-07T06:36:18;24.17;;;14.82;;
57071;SDS011;42956;51.366;11.298;2023-12-07T06:38:49;23.73;;;14.70;;
57071;SDS011;42956;51.366;11.298;2023-12-07T06:41:19;28.02;;;14.98;;
57071;SDS011;42956;51.366;11.298;2023-12-07T06:43:52;24.55;;;14.40;;
57071;SDS011;42956;51.366;11.298;2023-12-07T06:46:24;29.73;;;15.57;;
57071;SDS011;42956;51.366;11.298;2023-12-07T06:48:53;23.90;;;14.57;;
57071;SDS011;42956;51.366;11.298;2023-12-07T06:51:23;19.80;;;13.48;;
57071;SDS011;42956;51.366;11.298;2023-12-07T06:53:53;25.95;;;14.82;;
57071;SDS011;42956;51.366;11.298;2023-12-07T06:56:23;27.48;;;15.45;;
57071;SDS011;42956;51.366;11.298;2023-12-07T06:58:55;27.17;;;16.00;;
57071;SDS011;42956;51.366;11.298;2023-12-07T07:01:25;27.92;;;16.65;;
57071;SDS011;42956;51.366;11.298;2023-12-07T07:03:57;23.95;;;16.35;;
57071;SDS011;42956;51.366;11.298;2023-12-07T07:06:27;24.27;;;16.00;;
57071;SDS011;42956;51.366;11.298;2023-12-07T07:08:57;25.83;;;15.00;;
57071;SDS011;42956;51.366;11.298;2023-12-07T07:11:27;23.70;;;14.98;;
57071;SDS011;42956;51.366;11.298;2023-12-07T07:13:59;26.98;;;14.80;;
57071;SDS011;42956;51.366;11.298;2023-12-07T07:16:29;26.73;;;16.27;;
57071;SDS011;42956;51.366;11.298;2023-12-07T07:18:59;23.23;;;15.70;;
57071;SDS011;42956;51.366;11.298;2023-12-07T07:21:28;20.30;;;14.10;;
57071;SDS011;42956;51.366;11.298;2023-12-07T07:23:58;29.33;;;15.77;;
57071;SDS011;42956;51.366;11.298;2023-12-07T07:26:31;28.90;;;15.13;;
57071;SDS011;42956;51.366;11.298;2023-12-07T07:29:04;27.17;;;15.85;;
57071;SDS011;42956;51.366;11.298;2023-12-07T07:31:35;41.92;;;17.42;;
57071;SDS011;42956;51.366;11.298;2023-12-07T07:34:05;26.17;;;16.30;;
57071;SDS011;42956;51.366;11.298;2023-12-07T07:36:35;28.65;;;17.38;;
57071;SDS011;42956;51.366;11.298;2023-12-07T07:39:05;29.25;;;16.45;;
57071;SDS011;42956;51.366;11.298;2023-12-07T07:41:36;28.80;;;17.08;;
57071;SDS011;42956;51.366;11.298;2023-12-07T07:44:09;26.67;;;16.52;;
57071;SDS011;42956;51.366;11.298;2023-12-07T07:46:40;30.13;;;16.92;;
57071;SDS011;42956;51.366;11.298;2023-12-07T07:49:10;31.60;;;17.50;;
57071;SDS011;42956;51.366;11.298;2023-12-07T07:51:39;32.90;;;17.50;;
57071;SDS011;42956;51.366;11.298;2023-12-07T07:54:12;28.92;;;17.23;;
57071;SDS011;42956;51.366;11.298;2023-12-07T07:56:42;34.30;;;16.55;;
57071;SDS011;42956;51.366;11.298;2023-12-07T07:59:15;29.33;;;16.23;;
57071;SDS011;42956;51.366;11.298;2023-12-07T08:01:45;29.58;;;18.27;;
57071;SDS011;42956;51.366;11.298;2023-12-07T08:04:15;26.73;;;16.88;;
57071;SDS011;42956;51.366;11.298;2023-12-07T08:06:45;30.15;;;17.70;;
57071;SDS011;42956;51.366;11.298;2023-12-07T08:09:15;30.33;;;18.48;;
57071;SDS011;42956;51.366;11.298;2023-12-07T08:11:45;22.90;;;14.93;;
57071;SDS011;42956;51.366;11.298;2023-12-07T08:14:18;28.08;;;16.45;;
57071;SDS011;42956;51.366;11.298;2023-12-07T08:16:48;29.48;;;17.73;;
57071;SDS011;42956;51.366;11.298;2023-12-07T08:19:17;30.17;;;17.63;;
57071;SDS011;42956;51.366;11.298;2023-12-07T08:21:47;36.00;;;19.92;;
57071;SDS011;42956;51.366;11.298;2023-12-07T08:24:17;32.35;;;18.05;;
57071;SDS011;42956;51.366;11.298;2023-12-07T08:26:47;31.02;;;18.92;;
57071;SDS011;42956;51.366;11.298;2023-12-07T08:29:19;36.83;;;19.30;;
57071;SDS011;42956;51.366;11.298;2023-12-07T08:31:49;35.72;;;21.23;;
57071;SDS011;42956;51.366;11.298;2023-12-07T08:34:19;36.13;;;19.85;;
57071;SDS011;42956;51.366;11.298;2023-12-07T08:36:50;38.03;;;19.33;;
57071;SDS011;42956;51.366;11.298;2023-12-07T08:39:20;34.88;;;18.75;;
57071;SDS011;42956;51.366;11.298;2023-12-07T08:41:50;36.13;;;19.63;;
57071;SDS011;42956;51.366;11.298;2023-12-07T08:44:23;36.50;;;18.02;;
57071;SDS011;42956;51.366;11.298;2023-12-07T08:46:53;34.70;;;18.83;;
57071;SDS011;42956;51.366;11.298;2023-12-07T08:49:23;35.60;;;19.50;;
57071;SDS011;42956;51.366;11.298;2023-12-07T08:51:52;27.55;;;18.20;;
57071;SDS011;42956;51.366;11.298;2023-12-07T08:54:42;26.52;;;17.50;;
57071;SDS011;42956;51.366;11.298;2023-12-07T08:57:13;28.38;;;17.35;;
57071;SDS011;42956;51.366;11.298;2023-12-07T08:59:43;34.58;;;17.90;;
57071;SDS011;42956;51.366;11.298;2023-12-07T09:02:13;28.48;;;17.08;;
57071;SDS011;42956;51.366;11.298;2023-12-07T09:05:03;37.08;;;18.45;;
57071;SDS011;42956;51.366;11.298;2023-12-07T09:07:34;32.35;;;18.67;;
57071;SDS011;42956;51.366;11.298;2023-12-07T09:10:04;28.58;;;19.08;;
57071;SDS011;42956;51.366;11.298;2023-12-07T09:12:36;32.55;;;18.95;;
57071;SDS011;42956;51.366;11.298;2023-12-07T09:15:09;32.63;;;19.58;;
57071;SDS011;42956;51.366;11.298;2023-12-07T09:20:09;36.38;;;19.33;;
57071;SDS011;42956;51.366;11.298;2023-12-07T09:22:42;28.85;;;17.92;;
57071;SDS011;42956;51.366;11.298;2023-12-07T09:25:13;33.50;;;18.83;;
57071;SDS011;42956;51.366;11.298;2023-12-07T09:27:45;28.30;;;17.40;;
57071;SDS011;42956;51.366;11.298;2023-12-07T09:30:18;28.80;;;17.20;;
57071;SDS011;42956;51.366;11.298;2023-12-07T09:32:48;33.92;;;17.00;;
57071;SDS011;42956;51.366;11.298;2023-12-07T09:35:18;40.90;;;18.23;;
57071;SDS011;42956;51.366;11.298;2023-12-07T09:37:48;42.63;;;18.88;;
57071;SDS011;42956;51.366;11.298;2023-12-07T09:40:20;31.75;;;18.58;;
57071;SDS011;42956;51.366;11.298;2023-12-07T09:42:51;33.97;;;18.38;;
57071;SDS011;42956;51.366;11.298;2023-12-07T09:45:24;30.27;;;17.88;;
57071;SDS011;42956;51.366;11.298;2023-12-07T09:47:55;30.30;;;18.33;;
57071;SDS011;42956;51.366;11.298;2023-12-07T09:50:26;32.38;;;18.30;;
57071;SDS011;42956;51.366;11.298;2023-12-07T09:52:56;31.63;;;17.77;;
57071;SDS011;42956;51.366;11.298;2023-12-07T09:55:34;34.10;;;17.52;;
57071;SDS011;42956;51.366;11.298;2023-12-07T09:58:05;28.63;;;17.05;;
57071;SDS011;42956;51.366;11.298;2023-12-07T10:00:38;26.58;;;16.67;;
57071;SDS011;42956;51.366;11.298;2023-12-07T10:03:08;49.75;;;20.77;;
57071;SDS011;42956;51.366;11.298;2023-12-07T10:05:53;38.15;;;19.23;;
57071;SDS011;42956;51.366;11.298;2023-12-07T10:08:26;32.38;;;18.88;;
57071;SDS011;42956;51.366;11.298;2023-12-07T10:11:03;29.83;;;18.50;;
57071;SDS011;42956;51.366;11.298;2023-12-07T10:13:34;29.10;;;16.90;;
57071;SDS011;42956;51.366;11.298;2023-12-07T10:16:08;31.52;;;20.25;;
57071;SDS011;42956;51.366;11.298;2023-12-07T10:18:38;30.58;;;17.75;;
57071;SDS011;42956;51.366;11.298;2023-12-07T10:21:10;30.38;;;17.73;;
57071;SDS011;42956;51.366;11.298;2023-12-07T10:23:41;29.90;;;18.63;;
57071;SDS011;42956;51.366;11.298;2023-12-07T10:26:15;29.58;;;18.02;;
57071;SDS011;42956;51.366;11.298;2023-12-07T10:28:48;24.92;;;17.00;;
57071;SDS011;42956;51.366;11.298;2023-12-07T10:31:23;29.70;;;17.55;;
57071;SDS011;42956;51.366;11.298;2023-12-07T10:33:53;26.00;;;16.20;;
57071;SDS011;42956;51.366;11.298;2023-12-07T10:36:23;31.08;;;17.60;;
57071;SDS011;42956;51.366;11.298;2023-12-07T10:38:54;24.42;;;15.63;;
57071;SDS011;42956;51.366;11.298;2023-12-07T10:41:24;24.13;;;15.43;;
57071;SDS011;42956;51.366;11.298;2023-12-07T10:43:54;30.85;;;16.65;;
57071;SDS011;42956;51.366;11.298;2023-12-07T10:49:01;24.58;;;15.07;;
57071;SDS011;42956;51.366;11.298;2023-12-07T10:51:31;29.58;;;16.30;;
57071;SDS011;42956;51.366;11.298;2023-12-07T10:54:04;45.90;;;17.13;;
57071;SDS011;42956;51.366;11.298;2023-12-07T10:56:39;44.55;;;15.35;;
57071;SDS011;42956;51.366;11.298;2023-12-07T10:59:10;35.10;;;15.60;;
57071;SDS011;42956;51.366;11.298;2023-12-07T11:01:56;32.08;;;15.50;;
57071;SDS011;42956;51.366;11.298;2023-12-07T11:04:30;32.67;;;15.40;;
57071;SDS011;42956;51.366;11.298;2023-12-07T11:07:03;24.60;;;14.52;;
57071;SDS011;42956;51.366;11.298;2023-12-07T11:09:35;29.42;;;13.80;;
57071;SDS011;42956;51.366;11.298;2023-12-07T11:12:07;22.02;;;13.57;;
57071;SDS011;42956;51.366;11.298;2023-12-07T11:14:42;32.05;;;15.75;;
57071;SDS011;42956;51.366;11.298;2023-12-07T11:17:14;29.15;;;13.60;;
57071;SDS011;42956;51.366;11.298;2023-12-07T11:19:48;32.75;;;13.52;;
57071;SDS011;42956;51.366;11.298;2023-12-07T11:22:19;24.67;;;11.90;;
57071;SDS011;42956;51.366;11.298;2023-12-07T11:24:56;26.48;;;13.35;;
57071;SDS011;42956;51.366;11.298;2023-12-07T11:27:31;41.75;;;12.90;;
57071;SDS011;42956;51.366;11.298;2023-12-07T11:30:02;33.33;;;13.27;;
57071;SDS011;42956;51.366;11.298;2023-12-07T11:32:32;16.20;;;10.60;;
57071;SDS011;42956;51.366;11.298;2023-12-07T11:35:05;22.70;;;11.95;;
57071;SDS011;42956;51.366;11.298;2023-12-07T11:40:20;23.83;;;11.57;;
57071;SDS011;42956;51.366;11.298;2023-12-07T11:42:50;21.58;;;13.27;;
57071;SDS011;42956;51.366;11.298;2023-12-07T11:45:35;19.95;;;12.98;;
57071;SDS011;42956;51.366;11.298;2023-12-07T11:48:09;19.90;;;11.85;;
57071;SDS011;42956;51.366;11.298;2023-12-07T11:50:56;22.85;;;11.48;;
57071;SDS011;42956;51.366;11.298;2023-12-07T11:53:27;18.75;;;11.88;;
57071;SDS011;42956;51.366;11.298;2023-12-07T11:55:57;18.70;;;11.75;;
57071;SDS011;42956;51.366;11.298;2023-12-07T11:58:28;21.20;;;13.30;;
57071;SDS011;42956;51.366;11.298;2023-12-07T12:01:04;22.33;;;12.80;;
57071;SDS011;42956;51.366;11.298;2023-12-07T12:03:36;24.42;;;13.80;;
57071;SDS011;42956;51.366;11.298;2023-12-07T12:06:08;20.00;;;13.27;;
57071;SDS011;42956;51.366;11.298;2023-12-07T12:08:39;25.65;;;14.85;;
57071;SDS011;42956;51.366;11.298;2023-12-07T12:11:10;22.98;;;14.38;;
57071;SDS011;42956;51.366;11.298;2023-12-07T12:13:40;27.65;;;15.07;;
57071;SDS011;42956;51.366;11.298;2023-12-07T12:16:10;22.27;;;14.10;;
57071;SDS011;42956;51.366;11.298;2023-12-07T12:18:41;21.10;;;13.20;;
57071;SDS011;42956;51.366;11.298;2023-12-07T12:21:14;21.40;;;11.50;;
57071;SDS011;42956;51.366;11.298;2023-12-07T12:23:44;25.42;;;10.70;;
57071;SDS011;42956;51.366;11.298;2023-12-07T12:26:17;19.30;;;11.40;;
57071;SDS011;42956;51.366;11.298;2023-12-07T12:28:47;20.17;;;12.30;;
57071;SDS011;42956;51.366;11.298;2023-12-07T12:31:19;20.25;;;12.02;;
57071;SDS011;42956;51.366;11.298;2023-12-07T12:33:50;27.85;;;14.70;;
57071;SDS011;42956;51.366;11.298;2023-12-07T12:36:23;20.45;;;12.98;;
57071;SDS011;42956;51.366;11.298;2023-12-07T12:38:55;25.70;;;13.10;;
57071;SDS011;42956;51.366;11.298;2023-12-07T12:41:25;24.23;;;13.60;;
57071;SDS011;42956;51.366;11.298;2023-12-07T12:43:57;31.38;;;14.32;;
57071;SDS011;42956;51.366;11.298;2023-12-07T12:46:28;20.33;;;12.23;;
57071;SDS011;42956;51.366;11.298;2023-12-07T12:48:58;29.23;;;12.15;;
57071;SDS011;42956;51.366;11.298;2023-12-07T12:54:05;25.70;;;14.85;;
57071;SDS011;42956;51.366;11.298;2023-12-07T12:56:45;17.25;;;12.43;;
57071;SDS011;42956;51.366;11.298;2023-12-07T12:59:15;21.30;;;13.43;;
57071;SDS011;42956;51.366;11.298;2023-12-07T13:01:45;25.73;;;14.63;;
57071;SDS011;42956;51.366;11.298;2023-12-07T13:04:15;23.67;;;13.02;;
57071;SDS011;42956;51.366;11.298;2023-12-07T13:06:45;20.10;;;13.05;;
57071;SDS011;42956;51.366;11.298;2023-12-07T13:09:19;21.38;;;13.30;;
57071;SDS011;42956;51.366;11.298;2023-12-07T13:14:19;18.80;;;11.25;;
57071;SDS011;42956;51.366;11.298;2023-12-07T13:16:49;18.85;;;12.07;;
57071;SDS011;42956;51.366;11.298;2023-12-07T13:19:19;24.45;;;12.57;;
57071;SDS011;42956;51.366;11.298;2023-12-07T13:21:49;16.92;;;11.65;;
57071;SDS011;42956;51.366;11.298;2023-12-07T13:24:22;18.15;;;11.85;;
57071;SDS011;42956;51.366;11.298;2023-12-07T13:26:52;19.77;;;13.65;;
57071;SDS011;42956;51.366;11.298;2023-12-07T13:29:22;22.88;;;12.50;;
57071;SDS011;42956;51.366;11.298;2023-12-07T13:32:02;25.25;;;13.55;;
57071;SDS011;42956;51.366;11.298;2023-12-07T13:34:32;28.20;;;13.63;;
57071;SDS011;42956;51.366;11.298;2023-12-07T13:37:04;19.02;;;11.45;;
57071;SDS011;42956;51.366;11.298;2023-12-07T13:39:37;22.95;;;13.55;;
57071;SDS011;42956;51.366;11.298;2023-12-07T13:42:10;25.15;;;14.10;;
57071;SDS011;42956;51.366;11.298;2023-12-07T13:44:40;24.38;;;14.88;;
57071;SDS011;42956;51.366;11.298;2023-12-07T13:47:10;21.38;;;13.93;;
57071;SDS011;42956;51.366;11.298;2023-12-07T13:49:41;17.40;;;11.88;;
57071;SDS011;42956;51.366;11.298;2023-12-07T13:52:11;18.55;;;12.10;;
57071;SDS011;42956;51.366;11.298;2023-12-07T13:54:46;18.88;;;12.27;;
57071;SDS011;42956;51.366;11.298;2023-12-07T13:57:20;19.13;;;10.95;;
57071;SDS011;42956;51.366;11.298;2023-12-07T13:59:52;18.52;;;10.25;;
57071;SDS011;42956;51.366;11.298;2023-12-07T14:02:22;16.02;;;10.05;;
57071;SDS011;42956;51.366;11.298;2023-12-07T14:04:53;21.80;;;10.77;;
57071;SDS011;42956;51.366;11.298;2023-12-07T14:07:23;20.52;;;11.70;;
57071;SDS011;42956;51.366;11.298;2023-12-07T14:09:56;14.20;;;9.95;;
57071;SDS011;42956;51.366;11.298;2023-12-07T14:12:26;15.40;;;9.82;;
57071;SDS011;42956;51.366;11.298;2023-12-07T14:14:56;23.88;;;12.98;;
57071;SDS011;42956;51.366;11.298;2023-12-07T14:17:26;13.60;;;8.48;;
57071;SDS011;42956;51.366;11.298;2023-12-07T14:20:13;16.30;;;6.82;;
57071;SDS011;42956;51.366;11.298;2023-12-07T14:23:02;10.65;;;6.00;;
57071;SDS011;42956;51.366;11.298;2023-12-07T14:25:37;10.52;;;6.65;;
57071;SDS011;42956;51.366;11.298;2023-12-07T14:28:14;10.10;;;6.22;;
57071;SDS011;42956;51.366;11.298;2023-12-07T14:30:44;11.82;;;6.32;;
57071;SDS011;42956;51.366;11.298;2023-12-07T14:33:14;15.70;;;7.13;;
57071;SDS011;42956;51.366;11.298;2023-12-07T14:35:45;12.18;;;7.55;;
57071;SDS011;42956;51.366;11.298;2023-12-07T14:38:16;14.70;;;9.23;;
57071;SDS011;42956;51.366;11.298;2023-12-07T14:40:50;12.57;;;8.93;;
57071;SDS011;42956;51.366;11.298;2023-12-07T14:43:24;12.88;;;7.68;;
57071;SDS011;42956;51.366;11.298;2023-12-07T14:46:14;15.82;;;7.75;;
57071;SDS011;42956;51.366;11.298;2023-12-07T14:49:03;9.50;;;6.65;;
57071;SDS011;42956;51.366;11.298;2023-12-07T14:51:42;12.15;;;7.70;;